createdAt,value
2022-08-18T00:01:22.490Z,23.88
2022-08-18T00:03:57.024Z,18.35
2022-08-18T00:06:31.108Z,21.10
2022-08-18T00:09:01.309Z,17.85
2022-08-18T00:11:41.146Z,18.73
2022-08-18T00:14:22.709Z,22.05
2022-08-18T00:16:55.154Z,20.20
2022-08-18T00:19:45.438Z,24.92
2022-08-18T00:22:19.209Z,19.48
2022-08-18T00:24:52.345Z,19.65
2022-08-18T00:27:23.879Z,22.70
2022-08-18T00:29:59.588Z,19.45
2022-08-18T00:32:33.742Z,20.35
2022-08-18T00:35:08.542Z,20.65
2022-08-18T00:37:39.127Z,19.55
2022-08-18T00:40:11.825Z,19.58
2022-08-18T00:42:45.118Z,20.73
2022-08-18T00:45:16.930Z,20.65
2022-08-18T00:47:45.770Z,20.15
2022-08-18T00:50:19.797Z,21.08
2022-08-18T00:52:55.146Z,21.42
2022-08-18T00:55:24.965Z,23.42
2022-08-18T00:58:01.989Z,24.13
2022-08-18T01:00:30.972Z,23.95
2022-08-18T01:03:03.521Z,24.08
2022-08-18T01:05:40.919Z,23.92
2022-08-18T01:08:15.640Z,23.85
2022-08-18T01:10:46.743Z,22.98
2022-08-18T01:13:15.786Z,24.40
2022-08-18T01:15:44.897Z,24.95
2022-08-18T01:18:32.741Z,23.80
2022-08-18T01:21:38.436Z,24.98
2022-08-18T01:24:11.553Z,25.48
2022-08-18T01:26:46.472Z,25.10
2022-08-18T01:29:19.234Z,26.40
2022-08-18T01:31:55.684Z,27.05
2022-08-18T01:34:28.453Z,25.38
2022-08-18T01:36:58.025Z,26.40
2022-08-18T01:41:22.836Z,26.60
2022-08-18T01:42:19.162Z,27.50
2022-08-18T01:44:51.237Z,29.90
2022-08-18T01:47:20.795Z,29.27
2022-08-18T01:49:49.672Z,30.70
2022-08-18T01:52:21.180Z,30.90
2022-08-18T01:54:54.054Z,31.35
2022-08-18T01:57:23.471Z,31.23
2022-08-18T01:59:52.800Z,30.98
2022-08-18T02:02:27.155Z,31.10
2022-08-18T02:05:01.251Z,31.15
2022-08-18T02:07:32.624Z,32.65
2022-08-18T02:10:12.157Z,31.85
2022-08-18T02:12:42.140Z,30.75
2022-08-18T02:15:12.120Z,30.48
2022-08-18T02:17:41.887Z,31.15
2022-08-18T02:20:15.104Z,32.17
2022-08-18T02:22:44.786Z,30.05
2022-08-18T02:25:16.216Z,30.38
2022-08-18T02:27:45.890Z,30.73
2022-08-18T02:30:18.127Z,30.73
2022-08-18T02:32:47.120Z,29.90
2022-08-18T02:35:16.427Z,31.85
2022-08-18T02:37:48.251Z,30.52
2022-08-18T02:40:19.845Z,32.25
2022-08-18T02:42:49.816Z,30.15
2022-08-18T02:45:18.541Z,31.85
2022-08-18T02:47:52.900Z,33.05
2022-08-18T02:50:22.128Z,32.30
2022-08-18T02:52:50.989Z,32.33
2022-08-18T02:55:22.502Z,32.97
2022-08-18T02:57:51.370Z,35.63
2022-08-18T03:00:20.867Z,33.53
2022-08-18T03:02:51.658Z,33.97
2022-08-18T03:05:21.186Z,36.40
2022-08-18T03:07:51.219Z,35.45
2022-08-18T03:10:33.007Z,35.22
2022-08-18T03:13:03.565Z,36.78
2022-08-18T03:15:32.983Z,36.55
2022-08-18T03:18:02.443Z,36.70
2022-08-18T03:20:31.667Z,35.97
2022-08-18T03:23:05.854Z,38.40
2022-08-18T03:25:45.479Z,37.00
2022-08-18T03:28:14.925Z,37.47
2022-08-18T03:30:43.688Z,37.85
2022-08-18T03:33:12.888Z,39.58
2022-08-18T03:35:42.265Z,43.97
2022-08-18T03:38:11.136Z,41.80
2022-08-18T03:40:43.298Z,47.25
2022-08-18T03:43:23.776Z,43.30
2022-08-18T03:46:03.151Z,47.75
2022-08-18T03:48:33.498Z,44.33
2022-08-18T03:51:05.516Z,39.53
2022-08-18T03:53:34.827Z,41.95
2022-08-18T03:56:09.525Z,41.05
2022-08-18T03:58:38.370Z,39.38
2022-08-18T04:01:07.445Z,36.58
2022-08-18T04:03:37.012Z,39.67
2022-08-18T04:06:10.823Z,37.33
2022-08-18T04:08:41.462Z,37.08
2022-08-18T04:11:13.057Z,33.80
2022-08-18T04:13:42.074Z,34.40
2022-08-18T04:16:11.063Z,33.15
2022-08-18T04:18:39.816Z,33.03
2022-08-18T04:21:11.110Z,32.28
2022-08-18T04:23:44.211Z,31.80
2022-08-18T04:26:19.169Z,33.97
2022-08-18T04:28:48.583Z,33.53
2022-08-18T04:31:18.261Z,35.13
2022-08-18T04:33:47.203Z,36.20
2022-08-18T04:36:20.634Z,37.42
2022-08-18T04:38:50.009Z,37.33
2022-08-18T04:41:27.629Z,39.88
2022-08-18T04:43:58.328Z,37.80
2022-08-18T04:46:27.515Z,36.33
2022-08-18T04:48:59.242Z,35.60
2022-08-18T04:52:34.134Z,35.95
2022-08-18T04:54:18.574Z,34.33
2022-08-18T04:56:49.029Z,31.63
2022-08-18T04:59:18.441Z,32.03
2022-08-18T05:01:48.431Z,32.67
2022-08-18T05:04:19.205Z,32.92
2022-08-18T05:06:48.593Z,31.33
2022-08-18T05:09:22.720Z,30.00
2022-08-18T05:11:53.775Z,29.80
2022-08-18T05:14:22.639Z,30.70
2022-08-18T05:16:52.010Z,30.35
2022-08-18T05:19:23.233Z,38.22
2022-08-18T05:21:59.528Z,31.25
2022-08-18T05:24:37.163Z,29.90
2022-08-18T05:27:08.804Z,32.33
2022-08-18T05:29:41.837Z,26.60
2022-08-18T05:32:37.205Z,25.30
2022-08-18T05:35:06.288Z,26.45
2022-08-18T05:37:44.124Z,30.20
2022-08-18T05:40:15.986Z,25.80
2022-08-18T05:42:48.787Z,26.65
2022-08-18T05:45:20.333Z,25.85
2022-08-18T05:47:49.335Z,26.23
2022-08-18T05:50:21.207Z,25.13
2022-08-18T05:52:55.515Z,24.80
2022-08-18T05:55:49.531Z,26.60
2022-08-18T05:58:24.376Z,25.08
2022-08-18T06:01:06.855Z,28.38
2022-08-18T06:03:46.610Z,26.75
2022-08-18T06:06:20.443Z,26.42
2022-08-18T06:08:57.695Z,27.50
2022-08-18T06:11:28.518Z,26.80
2022-08-18T06:14:00.358Z,25.88
2022-08-18T06:16:49.464Z,25.92
2022-08-18T06:19:32.383Z,26.33
2022-08-18T06:22:12.012Z,25.00
2022-08-18T06:24:50.271Z,24.13
2022-08-18T06:27:27.940Z,25.58
2022-08-18T06:30:07.659Z,22.35
2022-08-18T06:32:53.018Z,22.67
2022-08-18T06:35:34.931Z,23.13
2022-08-18T06:38:45.469Z,34.35
2022-08-18T06:41:41.541Z,22.98
2022-08-18T06:44:10.658Z,21.90
2022-08-18T06:46:47.327Z,21.05
2022-08-18T06:49:25.823Z,23.33
2022-08-18T06:51:54.502Z,23.70
2022-08-18T06:54:30.748Z,22.52
2022-08-18T06:57:00.461Z,21.90
2022-08-18T06:59:31.745Z,24.98
2022-08-18T07:02:16.357Z,26.48
2022-08-18T07:04:59.923Z,24.05
2022-08-18T07:07:40.374Z,23.80
2022-08-18T07:10:31.388Z,21.67
2022-08-18T07:13:19.174Z,23.02
2022-08-18T07:15:48.698Z,21.92
2022-08-18T07:18:27.002Z,20.77
2022-08-18T07:20:59.423Z,20.90
2022-08-18T07:23:33.874Z,21.23
2022-08-18T07:26:10.606Z,21.05
2022-08-18T07:28:44.389Z,25.40
2022-08-18T07:31:20.476Z,20.17
2022-08-18T07:33:56.667Z,19.95
2022-08-18T07:36:28.798Z,19.83
2022-08-18T07:39:03.408Z,20.95
2022-08-18T07:41:39.435Z,18.75
2022-08-18T07:44:19.008Z,18.83
2022-08-18T07:46:55.156Z,18.15
2022-08-18T07:49:27.498Z,17.48
2022-08-18T07:52:02.662Z,17.20
2022-08-18T07:54:54.762Z,22.27
2022-08-18T07:57:42.442Z,17.00
2022-08-18T08:00:35.116Z,18.33
2022-08-18T08:03:29.051Z,16.55
2022-08-18T08:06:05.232Z,19.55
2022-08-18T08:08:40.893Z,16.90
2022-08-18T08:11:26.637Z,17.92
2022-08-18T08:14:09.821Z,17.92
2022-08-18T08:16:45.472Z,22.73
2022-08-18T08:19:58.751Z,16.70
2022-08-18T08:22:32.666Z,14.35
2022-08-18T08:25:28.310Z,15.57
2022-08-18T08:28:09.359Z,15.10
2022-08-18T08:30:47.711Z,13.80
2022-08-18T08:33:26.153Z,14.60
2022-08-18T08:36:00.835Z,13.57
2022-08-18T08:38:42.642Z,13.52
2022-08-18T08:41:19.893Z,13.60
2022-08-18T08:43:54.397Z,13.48
2022-08-18T08:46:29.993Z,11.38
2022-08-18T08:49:06.845Z,11.57
2022-08-18T08:51:40.622Z,13.77
2022-08-18T08:54:17.871Z,13.15
2022-08-18T08:56:50.597Z,20.58
2022-08-18T08:59:22.120Z,14.23
2022-08-18T09:01:59.864Z,11.80
2022-08-18T09:04:54.194Z,12.05
2022-08-18T09:07:42.449Z,16.55
2022-08-18T09:10:35.774Z,12.50
2022-08-18T09:13:21.161Z,14.23
2022-08-18T09:16:13.423Z,10.75
2022-08-18T09:18:53.145Z,12.27
2022-08-18T09:21:35.224Z,12.45
2022-08-18T09:24:13.766Z,11.05
2022-08-18T09:26:53.956Z,13.48
2022-08-18T09:29:27.851Z,11.70
2022-08-18T09:32:33.733Z,10.85
2022-08-18T09:35:17.566Z,11.32
2022-08-18T09:38:12.061Z,8.80
2022-08-18T09:41:06.426Z,8.98
2022-08-18T09:43:54.475Z,10.55
2022-08-18T09:46:51.352Z,12.13
2022-08-18T09:49:47.577Z,26.80
2022-08-18T09:56:01.675Z,16.35
2022-08-18T09:58:56.569Z,11.18
2022-08-18T10:01:38.304Z,13.85
2022-08-18T10:04:29.287Z,13.50
2022-08-18T10:07:38.821Z,16.40
2022-08-18T10:13:25.125Z,10.40
2022-08-18T10:16:14.241Z,8.77
2022-08-18T10:19:01.438Z,8.52
2022-08-18T10:21:53.878Z,8.82
2022-08-18T10:24:36.108Z,8.38
2022-08-18T10:27:09.877Z,11.70
2022-08-18T10:29:59.874Z,8.60
2022-08-18T10:32:53.957Z,8.45
2022-08-18T10:35:59.707Z,8.45
2022-08-18T10:38:54.158Z,8.48
2022-08-18T10:41:30.799Z,9.73
2022-08-18T10:44:10.586Z,9.73
2022-08-18T10:46:53.414Z,14.90
2022-08-18T10:49:33.255Z,9.20
2022-08-18T10:52:27.407Z,8.52
2022-08-18T10:55:18.215Z,9.05
2022-08-18T10:58:23.945Z,9.18
2022-08-18T11:01:07.990Z,9.18
2022-08-18T11:03:55.833Z,8.75
2022-08-18T11:06:27.449Z,8.45
2022-08-18T11:09:00.328Z,9.48
2022-08-18T11:14:53.016Z,9.02
2022-08-18T11:17:42.873Z,8.32
2022-08-18T11:20:15.606Z,9.07
2022-08-18T11:22:59.093Z,12.30
2022-08-18T11:25:31.121Z,8.50
2022-08-18T11:28:01.588Z,10.38
2022-08-18T11:30:35.228Z,8.07
2022-08-18T11:33:05.384Z,11.85
2022-08-18T11:35:46.856Z,8.02
2022-08-18T11:38:23.045Z,8.32
2022-08-18T11:46:39.007Z,12.68
2022-08-18T11:49:18.092Z,9.32
2022-08-18T11:57:54.438Z,13.15
2022-08-18T12:00:57.262Z,8.00
2022-08-18T12:03:41.585Z,12.60
2022-08-18T12:06:21.259Z,9.07
2022-08-18T12:08:59.084Z,9.25
2022-08-18T12:11:32.667Z,8.63
2022-08-18T12:14:31.832Z,14.63
2022-08-18T12:16:55.616Z,10.50
2022-08-18T12:19:28.059Z,8.13
2022-08-18T12:22:00.201Z,9.82
2022-08-18T12:24:36.711Z,7.88
2022-08-18T12:27:22.121Z,9.63
2022-08-18T12:29:51.778Z,9.23
2022-08-18T12:32:46.787Z,8.13
2022-08-18T12:35:13.709Z,31.17
2022-08-18T12:38:11.169Z,10.32
2022-08-18T12:40:35.351Z,9.68
2022-08-18T12:43:05.923Z,9.82
2022-08-18T12:45:37.421Z,9.43
2022-08-18T12:48:07.770Z,11.75
2022-08-18T12:50:49.650Z,8.82
2022-08-18T12:56:20.819Z,8.95
2022-08-18T12:58:51.933Z,9.88
2022-08-18T13:01:23.396Z,13.25
2022-08-18T13:07:00.443Z,9.65
2022-08-18T13:09:35.112Z,10.40
2022-08-18T13:12:21.424Z,7.78
2022-08-18T13:14:52.458Z,9.00
2022-08-18T13:17:29.201Z,11.43
2022-08-18T13:20:09.457Z,13.07
2022-08-18T13:22:40.884Z,8.77
2022-08-18T13:25:12.227Z,9.73
2022-08-18T13:27:45.107Z,8.35
2022-08-18T13:30:31.332Z,9.95
2022-08-18T13:33:02.402Z,8.60
2022-08-18T13:35:44.140Z,10.20
2022-08-18T13:38:20.796Z,7.55
2022-08-18T13:40:51.446Z,7.68
2022-08-18T13:43:26.085Z,7.55
2022-08-18T13:45:57.603Z,8.40
2022-08-18T13:48:26.490Z,8.57
2022-08-18T13:50:56.775Z,23.05
2022-08-18T13:53:27.392Z,12.73
2022-08-18T13:55:59.114Z,6.70
2022-08-18T13:58:29.475Z,7.78
2022-08-18T14:01:16.241Z,7.45
2022-08-18T14:03:51.286Z,12.95
2022-08-18T14:06:23.692Z,9.20
2022-08-18T14:08:54.358Z,8.90
2022-08-18T14:11:27.717Z,6.97
2022-08-18T14:14:02.673Z,12.40
2022-08-18T14:16:34.346Z,6.90
2022-08-18T14:19:22.975Z,9.27
2022-08-18T14:22:11.722Z,16.85
2022-08-18T14:24:59.035Z,16.55
2022-08-18T14:27:35.066Z,7.70
2022-08-18T14:30:07.545Z,13.45
2022-08-18T14:32:51.087Z,35.75
2022-08-18T14:35:33.848Z,9.40
2022-08-18T14:38:11.165Z,14.20
2022-08-18T14:40:43.106Z,44.33
2022-08-18T14:43:14.224Z,9.95
2022-08-18T14:45:48.942Z,9.38
2022-08-18T14:48:22.334Z,14.55
2022-08-18T14:50:55.314Z,16.40
2022-08-18T14:53:27.716Z,35.42
2022-08-18T14:55:57.810Z,50.05
2022-08-18T14:58:31.014Z,7.25
2022-08-18T15:01:08.380Z,7.60
2022-08-18T15:03:42.311Z,100.13
2022-08-18T15:06:12.950Z,13.27
2022-08-18T15:08:47.096Z,47.33
2022-08-18T15:11:16.594Z,16.30
2022-08-18T15:13:46.516Z,22.80
2022-08-18T15:16:15.882Z,14.07
2022-08-18T15:18:47.556Z,12.93
2022-08-18T15:21:38.569Z,33.55
2022-08-18T15:24:26.518Z,16.15
2022-08-18T15:27:05.477Z,18.55
2022-08-18T15:29:35.712Z,17.75
2022-08-18T15:32:05.684Z,10.90
2022-08-18T15:34:46.292Z,9.15
2022-08-18T15:37:19.391Z,7.35
2022-08-18T15:39:55.449Z,9.02
2022-08-18T15:42:25.014Z,10.32
2022-08-18T15:44:53.946Z,6.05
2022-08-18T15:47:25.080Z,8.52
2022-08-18T15:49:55.529Z,9.00
2022-08-18T15:52:26.607Z,7.97
2022-08-18T15:55:02.312Z,9.52
2022-08-18T15:57:39.042Z,15.32
2022-08-18T16:00:12.205Z,13.23
2022-08-18T16:02:44.814Z,7.93
2022-08-18T16:05:22.004Z,19.30
2022-08-18T16:07:50.643Z,15.02
2022-08-18T16:10:22.106Z,11.23
2022-08-18T16:12:51.658Z,11.35
2022-08-18T16:15:23.474Z,14.18
2022-08-18T16:17:54.704Z,11.57
2022-08-18T16:20:25.395Z,16.65
2022-08-18T16:22:54.785Z,11.27
2022-08-18T16:25:23.623Z,11.27
2022-08-18T16:27:54.042Z,17.42
2022-08-18T16:30:24.819Z,12.23
2022-08-18T16:32:54.302Z,15.23
2022-08-18T16:35:26.519Z,17.13
2022-08-18T16:37:55.067Z,17.25
2022-08-18T16:40:23.880Z,31.08
2022-08-18T16:42:56.849Z,22.30
2022-08-18T16:45:25.368Z,11.90
2022-08-18T16:47:54.825Z,14.15
2022-08-18T16:50:24.952Z,9.95
2022-08-18T16:52:54.962Z,15.18
2022-08-18T16:55:23.831Z,17.02
2022-08-18T16:58:13.585Z,12.98
2022-08-18T17:01:02.017Z,13.57
2022-08-18T17:03:48.266Z,13.00
2022-08-18T17:06:19.923Z,9.63
2022-08-18T17:08:50.346Z,22.63
2022-08-18T17:11:20.493Z,12.15
2022-08-18T17:13:50.459Z,17.83
2022-08-18T17:16:20.525Z,18.42
2022-08-18T17:18:49.952Z,18.88
2022-08-18T17:21:26.223Z,9.68
2022-08-18T17:23:57.925Z,11.68
2022-08-18T17:26:33.236Z,30.33
2022-08-18T17:29:11.499Z,11.68
2022-08-18T17:31:43.594Z,20.35
2022-08-18T17:34:16.001Z,17.20
2022-08-18T17:36:52.648Z,11.32
2022-08-18T17:39:29.520Z,8.52
2022-08-18T17:42:15.571Z,8.57
2022-08-18T17:44:52.390Z,8.43
2022-08-18T17:47:30.290Z,9.55
2022-08-18T17:50:28.373Z,7.63
2022-08-18T17:53:06.433Z,10.68
2022-08-18T17:55:41.118Z,22.45
2022-08-18T17:58:16.433Z,20.58
2022-08-18T18:00:45.478Z,19.88
2022-08-18T18:03:14.339Z,13.27
2022-08-18T18:05:46.613Z,11.82
2022-08-18T18:08:17.158Z,9.85
2022-08-18T18:11:05.374Z,10.68
2022-08-18T18:13:35.327Z,12.45
2022-08-18T18:16:24.747Z,11.70
2022-08-18T18:18:59.939Z,11.00
2022-08-18T18:21:53.431Z,14.40
2022-08-18T18:24:32.362Z,10.48
2022-08-18T18:27:02.849Z,10.80
2022-08-18T18:29:38.138Z,10.20
2022-08-18T18:32:24.651Z,11.27
2022-08-18T18:35:08.182Z,10.15
2022-08-18T18:37:47.424Z,16.50
2022-08-18T18:40:27.252Z,9.55
2022-08-18T18:42:59.286Z,9.88
2022-08-18T18:45:31.225Z,13.32
2022-08-18T18:48:06.919Z,9.15
2022-08-18T18:50:52.984Z,17.88
2022-08-18T18:53:32.572Z,12.88
2022-08-18T18:56:12.567Z,12.25
2022-08-18T18:58:53.423Z,17.83
2022-08-18T19:01:31.804Z,16.52
2022-08-18T19:04:07.397Z,12.00
2022-08-18T19:06:51.213Z,14.20
2022-08-18T19:09:24.815Z,15.63
2022-08-18T19:12:04.717Z,11.82
2022-08-18T19:14:39.040Z,13.93
2022-08-18T19:17:15.862Z,12.18
2022-08-18T19:19:49.713Z,13.60
2022-08-18T19:22:22.990Z,12.70
2022-08-18T19:24:57.757Z,19.70
2022-08-18T19:27:34.332Z,21.52
2022-08-18T19:30:09.783Z,15.60
2022-08-18T19:32:43.856Z,10.43
2022-08-18T19:35:35.158Z,12.73
2022-08-18T19:38:18.669Z,13.77
2022-08-18T19:40:53.782Z,10.48
2022-08-18T19:43:29.793Z,12.20
2022-08-18T19:46:10.927Z,11.80
2022-08-18T19:48:44.283Z,10.15
2022-08-18T19:51:24.940Z,15.63
2022-08-18T19:54:08.684Z,16.83
2022-08-18T19:56:50.868Z,14.38
2022-08-18T19:59:39.880Z,13.10
2022-08-18T20:02:35.207Z,13.85
2022-08-18T20:05:22.620Z,13.75
2022-08-18T20:08:19.956Z,16.67
2022-08-18T20:11:03.016Z,17.45
2022-08-18T20:13:36.681Z,15.65
2022-08-18T20:16:15.873Z,23.10
2022-08-18T20:18:49.068Z,12.23
2022-08-18T20:21:41.825Z,11.98
2022-08-18T20:24:18.610Z,12.85
2022-08-18T20:26:50.195Z,18.77
2022-08-18T20:29:40.184Z,12.57
2022-08-18T20:32:22.335Z,14.48
2022-08-18T20:34:52.988Z,11.73
2022-08-18T20:37:27.212Z,15.23
2022-08-18T20:39:58.047Z,13.05
2022-08-18T20:42:56.107Z,11.63
2022-08-18T20:45:42.592Z,10.05
2022-08-18T20:48:29.037Z,16.90
2022-08-18T20:51:09.723Z,15.35
2022-08-18T20:54:13.315Z,10.77
2022-08-18T20:56:48.139Z,13.13
2022-08-18T20:59:22.293Z,15.82
2022-08-18T21:01:56.657Z,12.13
2022-08-18T21:04:41.187Z,17.05
2022-08-18T21:07:36.685Z,18.67
2022-08-18T21:10:13.680Z,12.45
2022-08-18T21:12:51.953Z,11.50
2022-08-18T21:15:24.245Z,12.07
2022-08-18T21:18:04.966Z,12.18
2022-08-18T21:20:35.599Z,12.68
2022-08-18T21:23:10.270Z,13.63
2022-08-18T21:25:49.297Z,15.77
2022-08-18T21:28:21.603Z,11.88
2022-08-18T21:31:42.481Z,11.70
2022-08-18T21:33:51.052Z,12.43
2022-08-18T21:36:23.416Z,18.27
2022-08-18T21:39:05.787Z,16.45
2022-08-18T21:41:40.652Z,17.55
2022-08-18T21:44:15.479Z,13.63
2022-08-18T21:46:45.641Z,19.30
2022-08-18T21:49:23.670Z,18.58
2022-08-18T21:51:53.538Z,15.98
2022-08-18T21:54:26.963Z,13.25
2022-08-18T21:57:24.897Z,13.48
2022-08-18T22:00:19.478Z,16.95
2022-08-18T22:02:52.251Z,12.82
2022-08-18T22:05:57.967Z,12.85
2022-08-18T22:08:23.143Z,15.82
2022-08-18T22:11:59.640Z,12.60
2022-08-18T22:14:35.944Z,12.88
2022-08-18T22:17:33.081Z,18.05
2022-08-18T22:20:34.724Z,13.63
2022-08-18T22:23:26.350Z,13.68
2022-08-18T22:26:05.806Z,18.42
2022-08-18T22:28:42.555Z,13.00
2022-08-18T22:31:11.357Z,15.77
2022-08-18T22:33:40.441Z,13.20
2022-08-18T22:36:10.113Z,16.77
2022-08-18T22:38:38.709Z,16.45
2022-08-18T22:41:07.329Z,13.55
2022-08-18T22:43:37.485Z,15.10
2022-08-18T22:46:06.308Z,14.27
2022-08-18T22:48:34.855Z,13.48
2022-08-18T22:51:03.679Z,13.98
2022-08-18T22:53:32.578Z,15.07
2022-08-18T22:56:07.336Z,14.52
2022-08-18T22:58:38.160Z,12.90
2022-08-18T23:01:08.131Z,13.13
2022-08-18T23:03:41.831Z,16.92
2022-08-18T23:06:12.187Z,14.57
2022-08-18T23:08:54.882Z,15.55
2022-08-18T23:11:26.010Z,14.60
2022-08-18T23:13:57.338Z,14.18
2022-08-18T23:16:31.547Z,13.65
2022-08-18T23:19:03.151Z,15.80
2022-08-18T23:21:34.496Z,19.25
2022-08-18T23:24:05.969Z,15.07
2022-08-18T23:26:35.615Z,15.60
2022-08-18T23:29:06.303Z,15.02
2022-08-18T23:31:35.600Z,17.42
2022-08-18T23:34:04.945Z,15.10
2022-08-18T23:36:34.871Z,13.55
2022-08-18T23:39:03.768Z,14.85
2022-08-18T23:41:33.118Z,14.40
2022-08-18T23:44:01.917Z,15.15
2022-08-18T23:46:33.026Z,16.90
2022-08-18T23:49:04.706Z,17.63
2022-08-18T23:51:44.285Z,14.70
2022-08-18T23:54:14.622Z,16.05
2022-08-18T23:56:43.135Z,15.75
2022-08-18T23:59:13.062Z,16.70
